sensor_id;sensor_type;location;lat;lon;timestamp;P1;durP1;ratioP1;P2;durP2;ratioP2
5391;SDS011;2719;53.624;9.786;2022-07-22T00:01:49;11.80;;;4.97;;
5391;SDS011;2719;53.624;9.786;2022-07-22T00:04:16;10.67;;;4.10;;
5391;SDS011;2719;53.624;9.786;2022-07-22T00:06:42;8.37;;;3.80;;
5391;SDS011;2719;53.624;9.786;2022-07-22T00:09:09;7.23;;;3.57;;
5391;SDS011;2719;53.624;9.786;2022-07-22T00:11:37;7.80;;;3.40;;
5391;SDS011;2719;53.624;9.786;2022-07-22T00:14:05;9.07;;;3.10;;
5391;SDS011;2719;53.624;9.786;2022-07-22T00:16:32;8.93;;;4.30;;
5391;SDS011;2719;53.624;9.786;2022-07-22T00:18:59;5.23;;;3.17;;
5391;SDS011;2719;53.624;9.786;2022-07-22T00:21:26;4.00;;;3.00;;
5391;SDS011;2719;53.624;9.786;2022-07-22T00:23:53;4.23;;;2.73;;
5391;SDS011;2719;53.624;9.786;2022-07-22T00:26:19;2.27;;;2.07;;
5391;SDS011;2719;53.624;9.786;2022-07-22T00:28:48;8.23;;;2.33;;
5391;SDS011;2719;53.624;9.786;2022-07-22T00:31:15;5.60;;;1.97;;
5391;SDS011;2719;53.624;9.786;2022-07-22T00:33:41;4.40;;;2.60;;
5391;SDS011;2719;53.624;9.786;2022-07-22T00:36:08;3.73;;;1.80;;
5391;SDS011;2719;53.624;9.786;2022-07-22T00:38:35;10.50;;;1.70;;
5391;SDS011;2719;53.624;9.786;2022-07-22T00:41:02;2.50;;;1.40;;
5391;SDS011;2719;53.624;9.786;2022-07-22T00:46:15;4.20;;;2.37;;
5391;SDS011;2719;53.624;9.786;2022-07-22T00:48:42;4.63;;;1.80;;
5391;SDS011;2719;53.624;9.786;2022-07-22T00:51:09;4.77;;;1.80;;
5391;SDS011;2719;53.624;9.786;2022-07-22T00:53:36;2.50;;;2.30;;
5391;SDS011;2719;53.624;9.786;2022-07-22T00:56:03;13.00;;;2.47;;
5391;SDS011;2719;53.624;9.786;2022-07-22T00:58:31;3.80;;;1.80;;
5391;SDS011;2719;53.624;9.786;2022-07-22T01:00:59;2.73;;;1.80;;
5391;SDS011;2719;53.624;9.786;2022-07-22T01:03:26;4.40;;;1.63;;
5391;SDS011;2719;53.624;9.786;2022-07-22T01:05:53;3.50;;;2.30;;
5391;SDS011;2719;53.624;9.786;2022-07-22T01:08:20;6.30;;;3.50;;
5391;SDS011;2719;53.624;9.786;2022-07-22T01:10:46;5.67;;;2.90;;
5391;SDS011;2719;53.624;9.786;2022-07-22T01:13:13;8.73;;;2.30;;
5391;SDS011;2719;53.624;9.786;2022-07-22T01:15:40;5.23;;;2.50;;
5391;SDS011;2719;53.624;9.786;2022-07-22T01:18:08;6.37;;;2.73;;
5391;SDS011;2719;53.624;9.786;2022-07-22T01:20:37;9.03;;;2.97;;
5391;SDS011;2719;53.624;9.786;2022-07-22T01:23:04;6.20;;;2.70;;
5391;SDS011;2719;53.624;9.786;2022-07-22T01:25:30;5.33;;;2.17;;
5391;SDS011;2719;53.624;9.786;2022-07-22T01:27:57;11.30;;;2.43;;
5391;SDS011;2719;53.624;9.786;2022-07-22T01:30:24;6.27;;;2.70;;
5391;SDS011;2719;53.624;9.786;2022-07-22T01:32:51;4.90;;;2.07;;
5391;SDS011;2719;53.624;9.786;2022-07-22T01:35:18;5.67;;;1.70;;
5391;SDS011;2719;53.624;9.786;2022-07-22T01:37:46;5.73;;;2.00;;
5391;SDS011;2719;53.624;9.786;2022-07-22T01:40:13;7.50;;;2.10;;
5391;SDS011;2719;53.624;9.786;2022-07-22T01:42:39;6.10;;;2.10;;
5391;SDS011;2719;53.624;9.786;2022-07-22T01:45:06;9.03;;;2.50;;
5391;SDS011;2719;53.624;9.786;2022-07-22T01:47:34;5.20;;;1.80;;
5391;SDS011;2719;53.624;9.786;2022-07-22T01:50:01;6.77;;;1.30;;
5391;SDS011;2719;53.624;9.786;2022-07-22T01:52:28;3.33;;;1.33;;
5391;SDS011;2719;53.624;9.786;2022-07-22T01:54:56;6.03;;;1.27;;
5391;SDS011;2719;53.624;9.786;2022-07-22T01:57:23;27.43;;;3.47;;
5391;SDS011;2719;53.624;9.786;2022-07-22T01:59:50;4.67;;;1.40;;
5391;SDS011;2719;53.624;9.786;2022-07-22T02:02:17;5.10;;;1.23;;
5391;SDS011;2719;53.624;9.786;2022-07-22T02:04:43;6.50;;;0.90;;
5391;SDS011;2719;53.624;9.786;2022-07-22T02:07:10;3.73;;;1.00;;
5391;SDS011;2719;53.624;9.786;2022-07-22T02:09:37;6.90;;;1.10;;
5391;SDS011;2719;53.624;9.786;2022-07-22T02:12:05;8.47;;;1.53;;
5391;SDS011;2719;53.624;9.786;2022-07-22T02:14:33;4.57;;;1.33;;
5391;SDS011;2719;53.624;9.786;2022-07-22T02:17:00;9.70;;;1.17;;
5391;SDS011;2719;53.624;9.786;2022-07-22T02:19:26;8.40;;;0.90;;
5391;SDS011;2719;53.624;9.786;2022-07-22T02:21:53;9.87;;;1.57;;
5391;SDS011;2719;53.624;9.786;2022-07-22T02:24:20;8.63;;;1.43;;
5391;SDS011;2719;53.624;9.786;2022-07-22T02:26:46;6.47;;;1.30;;
5391;SDS011;2719;53.624;9.786;2022-07-22T02:29:14;9.07;;;1.17;;
5391;SDS011;2719;53.624;9.786;2022-07-22T02:31:41;6.73;;;0.90;;
5391;SDS011;2719;53.624;9.786;2022-07-22T02:34:08;7.40;;;1.20;;
5391;SDS011;2719;53.624;9.786;2022-07-22T02:36:35;6.13;;;1.33;;
5391;SDS011;2719;53.624;9.786;2022-07-22T02:39:02;4.77;;;0.93;;
5391;SDS011;2719;53.624;9.786;2022-07-22T02:41:29;1.83;;;0.90;;
5391;SDS011;2719;53.624;9.786;2022-07-22T02:43:56;4.83;;;1.10;;
5391;SDS011;2719;53.624;9.786;2022-07-22T02:46:24;5.37;;;0.90;;
5391;SDS011;2719;53.624;9.786;2022-07-22T02:48:53;14.63;;;2.60;;
5391;SDS011;2719;53.624;9.786;2022-07-22T02:51:20;6.27;;;1.03;;
5391;SDS011;2719;53.624;9.786;2022-07-22T02:53:47;10.53;;;1.03;;
5391;SDS011;2719;53.624;9.786;2022-07-22T02:56:14;3.10;;;1.23;;
5391;SDS011;2719;53.624;9.786;2022-07-22T02:58:41;3.10;;;1.20;;
5391;SDS011;2719;53.624;9.786;2022-07-22T03:01:08;7.20;;;1.70;;
5391;SDS011;2719;53.624;9.786;2022-07-22T03:03:36;11.43;;;1.67;;
5391;SDS011;2719;53.624;9.786;2022-07-22T03:06:02;10.33;;;1.47;;
5391;SDS011;2719;53.624;9.786;2022-07-22T03:08:29;9.83;;;1.50;;
5391;SDS011;2719;53.624;9.786;2022-07-22T03:10:56;10.67;;;1.60;;
5391;SDS011;2719;53.624;9.786;2022-07-22T03:13:23;7.40;;;1.00;;
5391;SDS011;2719;53.624;9.786;2022-07-22T03:15:50;10.33;;;1.30;;
5391;SDS011;2719;53.624;9.786;2022-07-22T03:18:16;7.57;;;1.73;;
5391;SDS011;2719;53.624;9.786;2022-07-22T03:20:45;13.03;;;1.80;;
5391;SDS011;2719;53.624;9.786;2022-07-22T03:23:11;9.83;;;1.53;;
5391;SDS011;2719;53.624;9.786;2022-07-22T03:25:38;6.80;;;0.97;;
5391;SDS011;2719;53.624;9.786;2022-07-22T03:28:05;2.50;;;0.80;;
5391;SDS011;2719;53.624;9.786;2022-07-22T03:30:32;2.17;;;0.70;;
5391;SDS011;2719;53.624;9.786;2022-07-22T03:32:58;3.97;;;1.13;;
5391;SDS011;2719;53.624;9.786;2022-07-22T03:35:25;4.07;;;0.63;;
5391;SDS011;2719;53.624;9.786;2022-07-22T03:37:53;5.37;;;1.03;;
5391;SDS011;2719;53.624;9.786;2022-07-22T03:40:20;8.70;;;1.00;;
5391;SDS011;2719;53.624;9.786;2022-07-22T03:42:47;5.70;;;0.97;;
5391;SDS011;2719;53.624;9.786;2022-07-22T03:45:13;5.37;;;1.13;;
5391;SDS011;2719;53.624;9.786;2022-07-22T03:47:40;3.43;;;0.77;;
5391;SDS011;2719;53.624;9.786;2022-07-22T03:50:08;7.13;;;1.30;;
5391;SDS011;2719;53.624;9.786;2022-07-22T03:52:35;4.00;;;0.73;;
5391;SDS011;2719;53.624;9.786;2022-07-22T03:55:04;3.20;;;0.90;;
5391;SDS011;2719;53.624;9.786;2022-07-22T03:57:31;3.67;;;0.90;;
5391;SDS011;2719;53.624;9.786;2022-07-22T03:59:58;3.53;;;1.00;;
5391;SDS011;2719;53.624;9.786;2022-07-22T04:02:24;16.80;;;1.27;;
5391;SDS011;2719;53.624;9.786;2022-07-22T04:04:51;5.40;;;0.80;;
5391;SDS011;2719;53.624;9.786;2022-07-22T04:07:18;6.23;;;0.83;;
5391;SDS011;2719;53.624;9.786;2022-07-22T04:09:44;3.83;;;0.90;;
5391;SDS011;2719;53.624;9.786;2022-07-22T04:12:13;12.43;;;1.03;;
5391;SDS011;2719;53.624;9.786;2022-07-22T04:14:39;3.87;;;0.80;;
5391;SDS011;2719;53.624;9.786;2022-07-22T04:17:06;4.40;;;0.70;;
5391;SDS011;2719;53.624;9.786;2022-07-22T04:19:33;8.63;;;1.67;;
5391;SDS011;2719;53.624;9.786;2022-07-22T04:21:59;2.07;;;0.80;;
5391;SDS011;2719;53.624;9.786;2022-07-22T04:24:26;2.87;;;0.70;;
5391;SDS011;2719;53.624;9.786;2022-07-22T04:26:53;2.67;;;1.20;;
5391;SDS011;2719;53.624;9.786;2022-07-22T04:29:21;3.83;;;1.00;;
5391;SDS011;2719;53.624;9.786;2022-07-22T04:31:47;7.50;;;1.13;;
5391;SDS011;2719;53.624;9.786;2022-07-22T04:34:14;6.17;;;1.03;;
5391;SDS011;2719;53.624;9.786;2022-07-22T04:36:41;4.93;;;1.23;;
5391;SDS011;2719;53.624;9.786;2022-07-22T04:39:07;4.20;;;1.10;;
5391;SDS011;2719;53.624;9.786;2022-07-22T04:41:35;10.03;;;1.57;;
5391;SDS011;2719;53.624;9.786;2022-07-22T04:44:02;7.13;;;1.70;;
5391;SDS011;2719;53.624;9.786;2022-07-22T04:46:30;3.50;;;1.00;;
5391;SDS011;2719;53.624;9.786;2022-07-22T04:48:57;5.47;;;1.37;;
5391;SDS011;2719;53.624;9.786;2022-07-22T04:51:23;4.73;;;1.07;;
5391;SDS011;2719;53.624;9.786;2022-07-22T04:53:50;7.77;;;1.20;;
5391;SDS011;2719;53.624;9.786;2022-07-22T04:56:17;7.93;;;1.03;;
5391;SDS011;2719;53.624;9.786;2022-07-22T04:58:43;8.13;;;1.47;;
5391;SDS011;2719;53.624;9.786;2022-07-22T05:01:10;11.37;;;1.77;;
5391;SDS011;2719;53.624;9.786;2022-07-22T05:03:39;14.40;;;1.97;;
5391;SDS011;2719;53.624;9.786;2022-07-22T05:06:05;5.27;;;1.67;;
5391;SDS011;2719;53.624;9.786;2022-07-22T05:08:32;11.20;;;1.20;;
5391;SDS011;2719;53.624;9.786;2022-07-22T05:10:59;6.87;;;1.03;;
5391;SDS011;2719;53.624;9.786;2022-07-22T05:13:26;9.03;;;0.97;;
5391;SDS011;2719;53.624;9.786;2022-07-22T05:15:52;6.53;;;1.07;;
5391;SDS011;2719;53.624;9.786;2022-07-22T05:18:19;9.60;;;1.00;;
5391;SDS011;2719;53.624;9.786;2022-07-22T05:20:48;4.70;;;1.67;;
5391;SDS011;2719;53.624;9.786;2022-07-22T05:23:14;12.63;;;1.40;;
5391;SDS011;2719;53.624;9.786;2022-07-22T05:25:41;7.77;;;1.17;;
5391;SDS011;2719;53.624;9.786;2022-07-22T05:28:08;7.60;;;1.63;;
5391;SDS011;2719;53.624;9.786;2022-07-22T05:30:34;19.43;;;2.07;;
5391;SDS011;2719;53.624;9.786;2022-07-22T05:33:01;11.50;;;2.10;;
5391;SDS011;2719;53.624;9.786;2022-07-22T05:35:28;5.50;;;1.23;;
5391;SDS011;2719;53.624;9.786;2022-07-22T05:37:56;9.43;;;1.03;;
5391;SDS011;2719;53.624;9.786;2022-07-22T05:40:23;8.53;;;1.73;;
5391;SDS011;2719;53.624;9.786;2022-07-22T05:42:50;11.17;;;1.87;;
5391;SDS011;2719;53.624;9.786;2022-07-22T05:45:16;4.87;;;1.07;;
5391;SDS011;2719;53.624;9.786;2022-07-22T05:47:43;14.53;;;1.53;;
5391;SDS011;2719;53.624;9.786;2022-07-22T05:50:10;12.50;;;1.33;;
5391;SDS011;2719;53.624;9.786;2022-07-22T05:52:36;10.50;;;1.30;;
5391;SDS011;2719;53.624;9.786;2022-07-22T05:55:06;14.77;;;1.37;;
5391;SDS011;2719;53.624;9.786;2022-07-22T05:57:33;7.90;;;1.30;;
5391;SDS011;2719;53.624;9.786;2022-07-22T06:00:00;8.77;;;1.63;;
5391;SDS011;2719;53.624;9.786;2022-07-22T06:02:27;6.00;;;1.43;;
5391;SDS011;2719;53.624;9.786;2022-07-22T06:04:54;6.10;;;1.60;;
5391;SDS011;2719;53.624;9.786;2022-07-22T06:07:21;14.73;;;3.00;;
5391;SDS011;2719;53.624;9.786;2022-07-22T06:09:47;4.77;;;1.40;;
5391;SDS011;2719;53.624;9.786;2022-07-22T06:12:15;12.10;;;1.67;;
5391;SDS011;2719;53.624;9.786;2022-07-22T06:14:42;4.87;;;1.47;;
5391;SDS011;2719;53.624;9.786;2022-07-22T06:17:09;9.17;;;1.50;;
5391;SDS011;2719;53.624;9.786;2022-07-22T06:19:35;10.43;;;1.57;;
5391;SDS011;2719;53.624;9.786;2022-07-22T06:22:02;6.77;;;1.40;;
5391;SDS011;2719;53.624;9.786;2022-07-22T06:24:29;12.50;;;2.87;;
5391;SDS011;2719;53.624;9.786;2022-07-22T06:26:56;10.23;;;2.00;;
5391;SDS011;2719;53.624;9.786;2022-07-22T06:29:24;9.77;;;1.83;;
5391;SDS011;2719;53.624;9.786;2022-07-22T06:31:50;6.40;;;1.53;;
5391;SDS011;2719;53.624;9.786;2022-07-22T06:34:17;13.33;;;1.77;;
5391;SDS011;2719;53.624;9.786;2022-07-22T06:36:44;16.37;;;2.40;;
5391;SDS011;2719;53.624;9.786;2022-07-22T06:39:11;9.77;;;1.97;;
5391;SDS011;2719;53.624;9.786;2022-07-22T06:41:37;7.70;;;2.63;;
5391;SDS011;2719;53.624;9.786;2022-07-22T06:44:04;10.50;;;1.53;;
5391;SDS011;2719;53.624;9.786;2022-07-22T06:46:32;8.67;;;1.80;;
5391;SDS011;2719;53.624;9.786;2022-07-22T06:48:59;7.50;;;1.70;;
5391;SDS011;2719;53.624;9.786;2022-07-22T06:51:26;8.17;;;1.47;;
5391;SDS011;2719;53.624;9.786;2022-07-22T06:53:53;17.17;;;2.40;;
5391;SDS011;2719;53.624;9.786;2022-07-22T06:56:20;15.63;;;3.13;;
5391;SDS011;2719;53.624;9.786;2022-07-22T06:58:46;9.27;;;1.50;;
5391;SDS011;2719;53.624;9.786;2022-07-22T07:01:13;8.60;;;1.53;;
5391;SDS011;2719;53.624;9.786;2022-07-22T07:03:41;7.70;;;1.27;;
5391;SDS011;2719;53.624;9.786;2022-07-22T07:06:08;13.63;;;2.17;;
5391;SDS011;2719;53.624;9.786;2022-07-22T07:08:36;11.47;;;2.37;;
5391;SDS011;2719;53.624;9.786;2022-07-22T07:11:02;19.00;;;1.67;;
5391;SDS011;2719;53.624;9.786;2022-07-22T07:13:30;7.43;;;1.43;;
5391;SDS011;2719;53.624;9.786;2022-07-22T07:15:56;13.50;;;1.67;;
5391;SDS011;2719;53.624;9.786;2022-07-22T07:18:23;10.13;;;2.20;;
5391;SDS011;2719;53.624;9.786;2022-07-22T07:20:51;14.43;;;1.80;;
5391;SDS011;2719;53.624;9.786;2022-07-22T07:23:18;10.70;;;1.47;;
5391;SDS011;2719;53.624;9.786;2022-07-22T07:25:45;6.83;;;1.73;;
5391;SDS011;2719;53.624;9.786;2022-07-22T07:28:11;15.63;;;2.27;;
5391;SDS011;2719;53.624;9.786;2022-07-22T07:30:38;6.37;;;1.50;;
5391;SDS011;2719;53.624;9.786;2022-07-22T07:33:05;9.47;;;1.47;;
5391;SDS011;2719;53.624;9.786;2022-07-22T07:35:31;10.50;;;1.20;;
5391;SDS011;2719;53.624;9.786;2022-07-22T07:37:59;7.73;;;1.40;;
5391;SDS011;2719;53.624;9.786;2022-07-22T07:40:27;8.00;;;1.03;;
5391;SDS011;2719;53.624;9.786;2022-07-22T07:42:54;8.13;;;1.67;;
5391;SDS011;2719;53.624;9.786;2022-07-22T07:45:21;4.73;;;1.00;;
5391;SDS011;2719;53.624;9.786;2022-07-22T07:47:48;16.40;;;1.50;;
5391;SDS011;2719;53.624;9.786;2022-07-22T07:50:14;11.63;;;2.03;;
5391;SDS011;2719;53.624;9.786;2022-07-22T07:52:42;5.47;;;1.07;;
5391;SDS011;2719;53.624;9.786;2022-07-22T07:55:13;8.73;;;1.10;;
5391;SDS011;2719;53.624;9.786;2022-07-22T07:57:41;5.40;;;1.00;;
5391;SDS011;2719;53.624;9.786;2022-07-22T08:00:10;13.67;;;1.63;;
5391;SDS011;2719;53.624;9.786;2022-07-22T08:02:37;24.87;;;1.53;;
5391;SDS011;2719;53.624;9.786;2022-07-22T08:05:05;12.97;;;1.70;;
5391;SDS011;2719;53.624;9.786;2022-07-22T08:07:32;5.17;;;0.80;;
5391;SDS011;2719;53.624;9.786;2022-07-22T08:09:59;11.90;;;1.57;;
5391;SDS011;2719;53.624;9.786;2022-07-22T08:12:27;5.03;;;0.80;;
5391;SDS011;2719;53.624;9.786;2022-07-22T08:14:54;9.27;;;1.30;;
5391;SDS011;2719;53.624;9.786;2022-07-22T08:17:21;5.60;;;1.00;;
5391;SDS011;2719;53.624;9.786;2022-07-22T08:19:47;9.77;;;1.30;;
5391;SDS011;2719;53.624;9.786;2022-07-22T08:22:14;20.73;;;1.43;;
5391;SDS011;2719;53.624;9.786;2022-07-22T08:24:40;5.37;;;1.13;;
5391;SDS011;2719;53.624;9.786;2022-07-22T08:27:07;6.97;;;1.67;;
5391;SDS011;2719;53.624;9.786;2022-07-22T08:29:35;3.23;;;0.90;;
5391;SDS011;2719;53.624;9.786;2022-07-22T08:32:02;18.87;;;1.60;;
5391;SDS011;2719;53.624;9.786;2022-07-22T08:34:29;12.50;;;1.80;;
5391;SDS011;2719;53.624;9.786;2022-07-22T08:36:56;10.03;;;1.20;;
5391;SDS011;2719;53.624;9.786;2022-07-22T08:39:22;9.37;;;1.10;;
5391;SDS011;2719;53.624;9.786;2022-07-22T08:41:49;13.30;;;1.10;;
5391;SDS011;2719;53.624;9.786;2022-07-22T08:44:16;13.83;;;1.20;;
5391;SDS011;2719;53.624;9.786;2022-07-22T08:46:45;5.83;;;0.97;;
5391;SDS011;2719;53.624;9.786;2022-07-22T08:49:13;7.70;;;0.80;;
5391;SDS011;2719;53.624;9.786;2022-07-22T08:51:39;4.50;;;0.80;;
5391;SDS011;2719;53.624;9.786;2022-07-22T08:54:06;6.57;;;1.23;;
5391;SDS011;2719;53.624;9.786;2022-07-22T08:56:33;6.00;;;1.17;;
5391;SDS011;2719;53.624;9.786;2022-07-22T08:59:03;4.00;;;0.93;;
5391;SDS011;2719;53.624;9.786;2022-07-22T09:01:29;4.63;;;0.93;;
5391;SDS011;2719;53.624;9.786;2022-07-22T09:03:57;6.83;;;1.40;;
5391;SDS011;2719;53.624;9.786;2022-07-22T09:06:25;8.60;;;1.20;;
5391;SDS011;2719;53.624;9.786;2022-07-22T09:08:58;16.70;;;1.67;;
5391;SDS011;2719;53.624;9.786;2022-07-22T09:11:27;9.90;;;1.00;;
5391;SDS011;2719;53.624;9.786;2022-07-22T09:13:55;5.17;;;0.70;;
5391;SDS011;2719;53.624;9.786;2022-07-22T09:16:38;7.80;;;0.80;;
5391;SDS011;2719;53.624;9.786;2022-07-22T09:19:07;3.53;;;0.70;;
5391;SDS011;2719;53.624;9.786;2022-07-22T09:21:34;12.13;;;1.10;;
5391;SDS011;2719;53.624;9.786;2022-07-22T09:24:02;12.47;;;1.50;;
5391;SDS011;2719;53.624;9.786;2022-07-22T09:26:30;7.03;;;0.70;;
5391;SDS011;2719;53.624;9.786;2022-07-22T09:28:58;2.50;;;0.83;;
5391;SDS011;2719;53.624;9.786;2022-07-22T09:31:26;10.07;;;1.10;;
5391;SDS011;2719;53.624;9.786;2022-07-22T09:33:55;6.77;;;1.07;;
5391;SDS011;2719;53.624;9.786;2022-07-22T09:36:24;15.23;;;1.37;;
5391;SDS011;2719;53.624;9.786;2022-07-22T09:38:51;10.40;;;0.60;;
5391;SDS011;2719;53.624;9.786;2022-07-22T09:41:18;5.17;;;0.70;;
5391;SDS011;2719;53.624;9.786;2022-07-22T09:43:45;7.30;;;1.03;;
5391;SDS011;2719;53.624;9.786;2022-07-22T09:46:13;6.90;;;0.70;;
5391;SDS011;2719;53.624;9.786;2022-07-22T09:48:40;10.73;;;1.60;;
5391;SDS011;2719;53.624;9.786;2022-07-22T09:51:08;6.60;;;0.73;;
5391;SDS011;2719;53.624;9.786;2022-07-22T09:53:36;4.63;;;0.80;;
5391;SDS011;2719;53.624;9.786;2022-07-22T09:56:03;6.43;;;0.80;;
5391;SDS011;2719;53.624;9.786;2022-07-22T09:58:31;11.40;;;1.00;;
5391;SDS011;2719;53.624;9.786;2022-07-22T10:00:59;22.23;;;1.97;;
5391;SDS011;2719;53.624;9.786;2022-07-22T10:03:30;9.90;;;1.33;;
5391;SDS011;2719;53.624;9.786;2022-07-22T10:05:58;5.70;;;0.90;;
5391;SDS011;2719;53.624;9.786;2022-07-22T10:08:27;17.93;;;1.10;;
5391;SDS011;2719;53.624;9.786;2022-07-22T10:10:58;2.50;;;0.70;;
5391;SDS011;2719;53.624;9.786;2022-07-22T10:13:26;12.43;;;1.33;;
5391;SDS011;2719;53.624;9.786;2022-07-22T10:15:53;5.00;;;0.77;;
5391;SDS011;2719;53.624;9.786;2022-07-22T10:18:21;9.87;;;1.87;;
5391;SDS011;2719;53.624;9.786;2022-07-22T10:20:59;3.20;;;1.40;;
5391;SDS011;2719;53.624;9.786;2022-07-22T10:23:26;11.50;;;1.40;;
5391;SDS011;2719;53.624;9.786;2022-07-22T10:25:54;3.33;;;1.00;;
5391;SDS011;2719;53.624;9.786;2022-07-22T10:28:26;4.73;;;0.60;;
5391;SDS011;2719;53.624;9.786;2022-07-22T10:30:54;3.27;;;0.73;;
5391;SDS011;2719;53.624;9.786;2022-07-22T10:33:45;9.23;;;1.40;;
5391;SDS011;2719;53.624;9.786;2022-07-22T10:36:14;4.83;;;0.80;;
5391;SDS011;2719;53.624;9.786;2022-07-22T10:39:06;3.10;;;0.60;;
5391;SDS011;2719;53.624;9.786;2022-07-22T10:41:35;3.57;;;1.03;;
5391;SDS011;2719;53.624;9.786;2022-07-22T10:44:04;3.40;;;0.93;;
5391;SDS011;2719;53.624;9.786;2022-07-22T10:46:47;2.77;;;0.70;;
5391;SDS011;2719;53.624;9.786;2022-07-22T10:49:16;8.10;;;0.77;;
5391;SDS011;2719;53.624;9.786;2022-07-22T10:57:43;7.40;;;0.67;;
5391;SDS011;2719;53.624;9.786;2022-07-22T11:00:11;4.40;;;0.70;;
5391;SDS011;2719;53.624;9.786;2022-07-22T11:02:38;11.13;;;1.20;;
5391;SDS011;2719;53.624;9.786;2022-07-22T11:05:06;5.23;;;0.97;;
5391;SDS011;2719;53.624;9.786;2022-07-22T11:07:33;7.70;;;1.00;;
5391;SDS011;2719;53.624;9.786;2022-07-22T11:10:09;12.57;;;0.73;;
5391;SDS011;2719;53.624;9.786;2022-07-22T11:12:37;8.53;;;0.80;;
5391;SDS011;2719;53.624;9.786;2022-07-22T11:15:05;28.50;;;1.53;;
5391;SDS011;2719;53.624;9.786;2022-07-22T11:17:35;9.00;;;1.23;;
5391;SDS011;2719;53.624;9.786;2022-07-22T11:20:03;3.43;;;0.77;;
5391;SDS011;2719;53.624;9.786;2022-07-22T11:22:31;3.13;;;0.60;;
5391;SDS011;2719;53.624;9.786;2022-07-22T11:24:58;8.63;;;1.03;;
5391;SDS011;2719;53.624;9.786;2022-07-22T11:27:26;2.80;;;0.83;;
5391;SDS011;2719;53.624;9.786;2022-07-22T11:29:54;12.23;;;1.00;;
5391;SDS011;2719;53.624;9.786;2022-07-22T11:32:21;5.43;;;0.83;;
5391;SDS011;2719;53.624;9.786;2022-07-22T11:34:50;6.30;;;0.63;;
5391;SDS011;2719;53.624;9.786;2022-07-22T11:37:18;7.10;;;1.03;;
5391;SDS011;2719;53.624;9.786;2022-07-22T11:39:48;6.03;;;0.83;;
5391;SDS011;2719;53.624;9.786;2022-07-22T11:42:15;3.80;;;0.60;;
5391;SDS011;2719;53.624;9.786;2022-07-22T11:44:42;2.07;;;0.60;;
5391;SDS011;2719;53.624;9.786;2022-07-22T11:47:09;6.93;;;0.63;;
5391;SDS011;2719;53.624;9.786;2022-07-22T11:49:37;10.83;;;0.90;;
5391;SDS011;2719;53.624;9.786;2022-07-22T11:52:06;5.30;;;0.83;;
5391;SDS011;2719;53.624;9.786;2022-07-22T11:54:37;3.10;;;0.60;;
5391;SDS011;2719;53.624;9.786;2022-07-22T11:57:03;5.30;;;0.63;;
5391;SDS011;2719;53.624;9.786;2022-07-22T11:59:30;2.77;;;1.00;;
5391;SDS011;2719;53.624;9.786;2022-07-22T12:01:58;1.37;;;0.80;;
5391;SDS011;2719;53.624;9.786;2022-07-22T12:04:26;7.17;;;0.53;;
5391;SDS011;2719;53.624;9.786;2022-07-22T12:06:53;5.10;;;0.50;;
5391;SDS011;2719;53.624;9.786;2022-07-22T12:09:23;3.63;;;0.73;;
5391;SDS011;2719;53.624;9.786;2022-07-22T12:11:51;2.03;;;0.60;;
5391;SDS011;2719;53.624;9.786;2022-07-22T12:14:21;4.93;;;0.80;;
5391;SDS011;2719;53.624;9.786;2022-07-22T12:16:53;3.57;;;0.60;;
5391;SDS011;2719;53.624;9.786;2022-07-22T12:19:21;3.37;;;1.13;;
5391;SDS011;2719;53.624;9.786;2022-07-22T12:21:51;6.67;;;0.67;;
5391;SDS011;2719;53.624;9.786;2022-07-22T12:24:28;6.83;;;0.63;;
5391;SDS011;2719;53.624;9.786;2022-07-22T12:26:57;5.97;;;0.77;;
5391;SDS011;2719;53.624;9.786;2022-07-22T12:29:26;3.33;;;0.80;;
5391;SDS011;2719;53.624;9.786;2022-07-22T12:31:55;5.80;;;0.80;;
5391;SDS011;2719;53.624;9.786;2022-07-22T12:34:34;2.50;;;0.70;;
5391;SDS011;2719;53.624;9.786;2022-07-22T12:37:11;4.30;;;0.80;;
5391;SDS011;2719;53.624;9.786;2022-07-22T12:39:56;3.30;;;0.83;;
5391;SDS011;2719;53.624;9.786;2022-07-22T12:42:24;1.90;;;0.67;;
5391;SDS011;2719;53.624;9.786;2022-07-22T12:44:52;8.90;;;1.03;;
5391;SDS011;2719;53.624;9.786;2022-07-22T12:47:44;8.43;;;0.70;;
5391;SDS011;2719;53.624;9.786;2022-07-22T12:50:16;1.80;;;0.40;;
5391;SDS011;2719;53.624;9.786;2022-07-22T12:52:48;3.23;;;0.67;;
5391;SDS011;2719;53.624;9.786;2022-07-22T12:55:18;2.20;;;0.73;;
5391;SDS011;2719;53.624;9.786;2022-07-22T12:57:45;9.40;;;1.67;;
5391;SDS011;2719;53.624;9.786;2022-07-22T13:00:15;5.00;;;0.60;;
5391;SDS011;2719;53.624;9.786;2022-07-22T13:02:43;9.10;;;0.90;;
5391;SDS011;2719;53.624;9.786;2022-07-22T13:05:10;3.83;;;0.60;;
5391;SDS011;2719;53.624;9.786;2022-07-22T13:07:36;5.50;;;0.50;;
5391;SDS011;2719;53.624;9.786;2022-07-22T13:10:04;4.40;;;0.50;;
5391;SDS011;2719;53.624;9.786;2022-07-22T13:12:33;7.33;;;1.17;;
5391;SDS011;2719;53.624;9.786;2022-07-22T13:15:00;1.63;;;0.60;;
5391;SDS011;2719;53.624;9.786;2022-07-22T13:17:26;0.70;;;0.50;;
5391;SDS011;2719;53.624;9.786;2022-07-22T13:19:53;6.17;;;0.60;;
5391;SDS011;2719;53.624;9.786;2022-07-22T13:22:20;2.10;;;0.60;;
5391;SDS011;2719;53.624;9.786;2022-07-22T13:24:47;5.37;;;0.70;;
5391;SDS011;2719;53.624;9.786;2022-07-22T13:27:14;9.57;;;0.80;;
5391;SDS011;2719;53.624;9.786;2022-07-22T13:29:42;4.50;;;0.60;;
5391;SDS011;2719;53.624;9.786;2022-07-22T13:32:09;5.00;;;1.23;;
5391;SDS011;2719;53.624;9.786;2022-07-22T13:34:35;6.50;;;0.90;;
5391;SDS011;2719;53.624;9.786;2022-07-22T13:37:02;1.40;;;0.60;;
5391;SDS011;2719;53.624;9.786;2022-07-22T13:39:29;3.37;;;0.70;;
5391;SDS011;2719;53.624;9.786;2022-07-22T13:41:56;6.17;;;0.80;;
5391;SDS011;2719;53.624;9.786;2022-07-22T13:44:23;4.20;;;1.87;;
5391;SDS011;2719;53.624;9.786;2022-07-22T13:46:51;8.90;;;1.10;;
5391;SDS011;2719;53.624;9.786;2022-07-22T13:49:17;5.03;;;0.60;;
5391;SDS011;2719;53.624;9.786;2022-07-22T13:51:44;3.70;;;0.60;;
5391;SDS011;2719;53.624;9.786;2022-07-22T13:54:11;1.63;;;0.70;;
5391;SDS011;2719;53.624;9.786;2022-07-22T13:56:37;2.00;;;0.60;;
5391;SDS011;2719;53.624;9.786;2022-07-22T13:59:04;3.23;;;0.50;;
5391;SDS011;2719;53.624;9.786;2022-07-22T14:01:31;2.23;;;0.77;;
5391;SDS011;2719;53.624;9.786;2022-07-22T14:03:59;5.53;;;0.80;;
5391;SDS011;2719;53.624;9.786;2022-07-22T14:06:27;3.50;;;0.60;;
5391;SDS011;2719;53.624;9.786;2022-07-22T14:08:54;2.60;;;0.60;;
5391;SDS011;2719;53.624;9.786;2022-07-22T14:11:20;6.53;;;0.53;;
5391;SDS011;2719;53.624;9.786;2022-07-22T14:13:47;3.57;;;0.67;;
5391;SDS011;2719;53.624;9.786;2022-07-22T14:16:14;4.37;;;0.53;;
5391;SDS011;2719;53.624;9.786;2022-07-22T14:18:59;4.93;;;0.70;;
5391;SDS011;2719;53.624;9.786;2022-07-22T14:21:26;3.20;;;0.67;;
5391;SDS011;2719;53.624;9.786;2022-07-22T14:23:53;5.57;;;0.60;;
5391;SDS011;2719;53.624;9.786;2022-07-22T14:26:20;1.37;;;0.60;;
5391;SDS011;2719;53.624;9.786;2022-07-22T14:28:46;8.23;;;1.57;;
5391;SDS011;2719;53.624;9.786;2022-07-22T14:31:13;6.43;;;0.77;;
5391;SDS011;2719;53.624;9.786;2022-07-22T14:33:40;3.10;;;0.70;;
5391;SDS011;2719;53.624;9.786;2022-07-22T14:36:08;2.50;;;0.80;;
5391;SDS011;2719;53.624;9.786;2022-07-22T14:38:35;2.50;;;0.50;;
5391;SDS011;2719;53.624;9.786;2022-07-22T14:41:02;4.77;;;0.70;;
5391;SDS011;2719;53.624;9.786;2022-07-22T14:43:29;1.70;;;0.47;;
5391;SDS011;2719;53.624;9.786;2022-07-22T14:45:55;1.60;;;0.73;;
5391;SDS011;2719;53.624;9.786;2022-07-22T14:48:22;6.73;;;0.70;;
5391;SDS011;2719;53.624;9.786;2022-07-22T14:50:49;2.50;;;0.53;;
5391;SDS011;2719;53.624;9.786;2022-07-22T14:53:17;4.30;;;0.73;;
5391;SDS011;2719;53.624;9.786;2022-07-22T14:55:44;7.23;;;0.57;;
5391;SDS011;2719;53.624;9.786;2022-07-22T14:58:10;2.07;;;0.40;;
5391;SDS011;2719;53.624;9.786;2022-07-22T15:00:37;1.90;;;0.40;;
5391;SDS011;2719;53.624;9.786;2022-07-22T15:03:04;3.00;;;0.50;;
5391;SDS011;2719;53.624;9.786;2022-07-22T15:05:30;1.63;;;0.50;;
5391;SDS011;2719;53.624;9.786;2022-07-22T15:07:57;1.27;;;0.50;;
5391;SDS011;2719;53.624;9.786;2022-07-22T15:10:25;3.33;;;0.47;;
5391;SDS011;2719;53.624;9.786;2022-07-22T15:12:52;2.70;;;0.60;;
5391;SDS011;2719;53.624;9.786;2022-07-22T15:15:19;7.70;;;0.50;;
5391;SDS011;2719;53.624;9.786;2022-07-22T15:17:45;4.57;;;0.40;;
5391;SDS011;2719;53.624;9.786;2022-07-22T15:20:12;1.50;;;0.50;;
5391;SDS011;2719;53.624;9.786;2022-07-22T15:22:39;1.80;;;0.60;;
5391;SDS011;2719;53.624;9.786;2022-07-22T15:25:06;2.90;;;0.60;;